EZS76KB LSGG-LPPR
Flight info
| Callsign | EZS76KB |
|---|---|
| Flight time | 2h 0m |
| Altitude | 29000 |
| Route | DEPUL T544 LSE DCT RUSIT DCT ESIDA/N0422F310 DCT LERGA DCT MINSO DCT NARAK DCT AGN DCT LATEK DCT PPN DCT MIRPO DCT DGO DCT NEA DCT ZMR L155 ADORO DCT CANAR DCT INKIT |
| Aircraft | A320/M-SDE2E3FGHIJ1RWXYZ/LB1 |
Departure
| Time | 2026-05-05 15:55 |
|---|---|
| Airport | Geneva International Airport (LSGG) |
Arrival
| Time | 2026-05-05 17:55 |
|---|---|
| Airport | Francisco de Sá Carneiro Airport (LPPR) |
| Time | Latitude | Longitude | Altitude | Speed | Heading |
|---|---|---|---|---|---|
| 2026-05-05 15:19 | 46.23065 | 6.10405 | 1399 ft | 0 kts | 0° |
| 2026-05-05 15:48 | 46.23073 | 6.10405 | 1401 ft | 4 kts | 0° |
| 2026-05-05 15:48 | 46.23115 | 6.10404 | 1395 ft | 5 kts | 353° |
| 2026-05-05 15:49 | 46.23145 | 6.10376 | 1395 ft | 6 kts | 321° |
| 2026-05-05 15:49 | 46.23194 | 6.10355 | 1393 ft | 9 kts | 16° |
| 2026-05-05 15:49 | 46.23254 | 6.10427 | 1395 ft | 13 kts | 45° |
| 2026-05-05 15:49 | 46.23330 | 6.10539 | 1397 ft | 18 kts | 45° |
| 2026-05-05 15:50 | 46.23430 | 6.10679 | 1400 ft | 21 kts | 43° |
| 2026-05-05 15:50 | 46.23529 | 6.10817 | 1399 ft | 18 kts | 45° |
| 2026-05-05 15:50 | 46.23612 | 6.10939 | 1395 ft | 16 kts | 46° |
| 2026-05-05 15:50 | 46.23687 | 6.11052 | 1398 ft | 14 kts | 46° |
| 2026-05-05 15:51 | 46.23748 | 6.11143 | 1397 ft | 14 kts | 46° |
| 2026-05-05 15:51 | 46.23838 | 6.11274 | 1405 ft | 23 kts | 45° |
| 2026-05-05 15:51 | 46.23964 | 6.11459 | 1397 ft | 28 kts | 46° |
| 2026-05-05 15:51 | 46.24107 | 6.11671 | 1398 ft | 30 kts | 46° |
| 2026-05-05 15:52 | 46.24260 | 6.11895 | 1397 ft | 32 kts | 45° |
| 2026-05-05 15:52 | 46.24415 | 6.12122 | 1405 ft | 31 kts | 45° |
| 2026-05-05 15:52 | 46.24569 | 6.12347 | 1402 ft | 31 kts | 45° |
| 2026-05-05 15:52 | 46.24709 | 6.12552 | 1395 ft | 22 kts | 46° |
| 2026-05-05 15:53 | 46.24818 | 6.12687 | 1402 ft | 19 kts | 22° |
| 2026-05-05 15:53 | 46.24939 | 6.12733 | 1394 ft | 17 kts | 4° |
| 2026-05-05 15:53 | 46.24994 | 6.12646 | 1401 ft | 11 kts | 248° |
| 2026-05-05 15:53 | 46.24977 | 6.12614 | 1402 ft | 0 kts | 223° |
| 2026-05-05 15:54 | 46.24977 | 6.12613 | 1401 ft | 0 kts | 223° |
| 2026-05-05 15:54 | 46.24933 | 6.12554 | 1395 ft | 34 kts | 225° |
| 2026-05-05 15:54 | 46.24594 | 6.12054 | 1405 ft | 102 kts | 225° |
| 2026-05-05 15:54 | 46.23961 | 6.11127 | 1402 ft | 155 kts | 225° |
| 2026-05-05 15:55 | 46.23192 | 6.09996 | 1983 ft | 154 kts | 225° |
| 2026-05-05 15:55 | 46.22433 | 6.08860 | 2652 ft | 161 kts | 226° |
| 2026-05-05 15:55 | 46.21603 | 6.07634 | 3053 ft | 181 kts | 226° |
| 2026-05-05 15:55 | 46.20655 | 6.06246 | 3349 ft | 207 kts | 224° |
| 2026-05-05 15:56 | 46.19584 | 6.04682 | 3796 ft | 231 kts | 224° |
| 2026-05-05 15:56 | 46.18414 | 6.02973 | 4496 ft | 244 kts | 225° |
| 2026-05-05 15:56 | 46.17228 | 6.01245 | 5417 ft | 247 kts | 224° |
| 2026-05-05 15:56 | 46.16013 | 5.99475 | 6355 ft | 251 kts | 224° |
| 2026-05-05 15:57 | 46.14792 | 5.97661 | 7247 ft | 253 kts | 225° |
| 2026-05-05 15:57 | 46.13662 | 5.95692 | 8116 ft | 258 kts | 234° |
| 2026-05-05 15:57 | 46.12666 | 5.93515 | 9009 ft | 261 kts | 235° |
| 2026-05-05 15:57 | 46.11663 | 5.91318 | 9852 ft | 265 kts | 235° |
| 2026-05-05 15:58 | 46.10620 | 5.89046 | 10287 ft | 282 kts | 235° |
| 2026-05-05 15:58 | 46.09487 | 5.86593 | 10578 ft | 305 kts | 234° |
| 2026-05-05 15:58 | 46.08291 | 5.84011 | 11279 ft | 313 kts | 234° |
| 2026-05-05 15:58 | 46.07074 | 5.81385 | 12122 ft | 318 kts | 235° |
| 2026-05-05 15:59 | 46.05856 | 5.78753 | 12925 ft | 321 kts | 235° |
| 2026-05-05 15:59 | 46.04612 | 5.76066 | 13676 ft | 324 kts | 235° |
| 2026-05-05 15:59 | 46.03352 | 5.73345 | 14349 ft | 328 kts | 234° |
| 2026-05-05 15:59 | 46.02083 | 5.70609 | 14987 ft | 331 kts | 234° |
| 2026-05-05 16:00 | 46.00799 | 5.67842 | 15672 ft | 334 kts | 234° |
| 2026-05-05 16:00 | 45.99501 | 5.65053 | 16358 ft | 336 kts | 234° |
| 2026-05-05 16:00 | 45.98197 | 5.62250 | 16993 ft | 340 kts | 234° |
| 2026-05-05 16:00 | 45.96876 | 5.59412 | 17653 ft | 343 kts | 234° |
| 2026-05-05 16:01 | 45.95584 | 5.56564 | 18254 ft | 346 kts | 236° |
| 2026-05-05 16:01 | 45.94286 | 5.53632 | 18805 ft | 349 kts | 236° |
| 2026-05-05 16:01 | 45.92984 | 5.50658 | 19331 ft | 354 kts | 236° |
| 2026-05-05 16:01 | 45.91674 | 5.47649 | 19911 ft | 357 kts | 236° |
| 2026-05-05 16:02 | 45.90352 | 5.44616 | 20472 ft | 360 kts | 236° |
| 2026-05-05 16:02 | 45.89013 | 5.41563 | 21033 ft | 363 kts | 236° |
| 2026-05-05 16:02 | 45.87658 | 5.38493 | 21611 ft | 365 kts | 236° |
| 2026-05-05 16:02 | 45.86291 | 5.35409 | 22208 ft | 368 kts | 236° |
| 2026-05-05 16:03 | 45.84911 | 5.32299 | 22780 ft | 371 kts | 236° |
| 2026-05-05 16:03 | 45.83543 | 5.29218 | 23337 ft | 372 kts | 236° |
| 2026-05-05 16:03 | 45.82150 | 5.26082 | 23814 ft | 374 kts | 236° |
| 2026-05-05 16:03 | 45.80748 | 5.22935 | 24264 ft | 375 kts | 236° |
| 2026-05-05 16:04 | 45.79339 | 5.19779 | 24734 ft | 377 kts | 236° |
| 2026-05-05 16:04 | 45.77922 | 5.16611 | 25181 ft | 378 kts | 236° |
| 2026-05-05 16:04 | 45.76500 | 5.13430 | 25609 ft | 380 kts | 236° |
| 2026-05-05 16:04 | 45.75072 | 5.10241 | 26069 ft | 381 kts | 235° |
| 2026-05-05 16:05 | 45.73683 | 5.07042 | 26438 ft | 385 kts | 237° |
| 2026-05-05 16:05 | 45.72348 | 5.03712 | 26810 ft | 387 kts | 239° |
| 2026-05-05 16:05 | 45.71055 | 5.00319 | 27189 ft | 389 kts | 239° |
| 2026-05-05 16:05 | 45.69775 | 4.96899 | 27554 ft | 391 kts | 239° |
| 2026-05-05 16:06 | 45.68485 | 4.93463 | 27933 ft | 393 kts | 239° |
| 2026-05-05 16:06 | 45.67177 | 4.90019 | 28315 ft | 395 kts | 239° |
| 2026-05-05 16:06 | 45.65872 | 4.86561 | 28750 ft | 395 kts | 240° |
| 2026-05-05 16:06 | 45.64612 | 4.83069 | 29155 ft | 396 kts | 240° |
| 2026-05-05 16:07 | 45.63374 | 4.79535 | 29523 ft | 398 kts | 241° |
| 2026-05-05 16:07 | 45.62162 | 4.76037 | 29858 ft | 399 kts | 241° |
| 2026-05-05 16:07 | 45.60923 | 4.72476 | 30133 ft | 401 kts | 241° |
| 2026-05-05 16:07 | 45.59674 | 4.68919 | 30396 ft | 402 kts | 241° |
| 2026-05-05 16:08 | 45.58405 | 4.65329 | 30610 ft | 406 kts | 241° |
| 2026-05-05 16:08 | 45.57122 | 4.61724 | 30794 ft | 409 kts | 241° |
| 2026-05-05 16:08 | 45.55834 | 4.58115 | 30881 ft | 405 kts | 241° |
| 2026-05-05 16:08 | 45.54579 | 4.54606 | 30891 ft | 390 kts | 241° |
| 2026-05-05 16:09 | 45.53356 | 4.51185 | 30891 ft | 385 kts | 241° |
| 2026-05-05 16:09 | 45.50950 | 4.44457 | 30893 ft | 382 kts | 241° |
| 2026-05-05 16:10 | 45.48532 | 4.37716 | 30891 ft | 380 kts | 240° |
| 2026-05-05 16:10 | 45.46139 | 4.31056 | 30893 ft | 376 kts | 240° |
| 2026-05-05 16:11 | 45.43745 | 4.24437 | 30902 ft | 376 kts | 241° |
| 2026-05-05 16:12 | 45.38944 | 4.11185 | 30866 ft | 379 kts | 241° |
| 2026-05-05 16:13 | 45.32864 | 3.94496 | 30867 ft | 382 kts | 241° |
| 2026-05-05 16:13 | 45.30448 | 3.87861 | 30874 ft | 380 kts | 240° |
| 2026-05-05 16:14 | 45.25524 | 3.74605 | 30868 ft | 379 kts | 236° |
| 2026-05-05 16:15 | 45.19483 | 3.62351 | 30873 ft | 380 kts | 234° |
| 2026-05-05 16:16 | 45.13451 | 3.50127 | 30873 ft | 380 kts | 234° |
| 2026-05-05 16:17 | 45.08925 | 3.40993 | 30909 ft | 376 kts | 233° |
| 2026-05-05 16:18 | 45.04436 | 3.31990 | 30913 ft | 374 kts | 233° |
| 2026-05-05 16:19 | 44.99949 | 3.22992 | 30907 ft | 373 kts | 233° |
| 2026-05-05 16:19 | 44.95461 | 3.14028 | 30910 ft | 372 kts | 233° |
| 2026-05-05 16:20 | 44.89505 | 3.02179 | 30917 ft | 370 kts | 233° |
| 2026-05-05 16:22 | 44.82112 | 2.87224 | 30897 ft | 373 kts | 236° |
| 2026-05-05 16:23 | 44.76540 | 2.74907 | 30915 ft | 374 kts | 236° |
| 2026-05-05 16:23 | 44.72281 | 2.65674 | 31135 ft | 378 kts | 235° |
| 2026-05-05 16:24 | 44.70837 | 2.62566 | 31485 ft | 380 kts | 235° |
| 2026-05-05 16:24 | 44.69411 | 2.59499 | 31869 ft | 380 kts | 236° |
| 2026-05-05 16:24 | 44.66517 | 2.53287 | 32677 ft | 380 kts | 235° |
| 2026-05-05 16:25 | 44.65075 | 2.50193 | 33099 ft | 379 kts | 235° |
| 2026-05-05 16:25 | 44.62190 | 2.43998 | 33852 ft | 378 kts | 235° |
| 2026-05-05 16:25 | 44.60754 | 2.40919 | 34174 ft | 378 kts | 235° |
| 2026-05-05 16:26 | 44.57867 | 2.34754 | 34766 ft | 377 kts | 235° |
| 2026-05-05 16:26 | 44.55010 | 2.28658 | 35372 ft | 377 kts | 235° |
| 2026-05-05 16:27 | 44.53564 | 2.25580 | 35531 ft | 380 kts | 235° |
| 2026-05-05 16:27 | 44.52105 | 2.22480 | 35722 ft | 381 kts | 235° |
| 2026-05-05 16:27 | 44.50642 | 2.19377 | 35943 ft | 382 kts | 235° |
| 2026-05-05 16:27 | 44.49175 | 2.16266 | 36188 ft | 383 kts | 235° |
| 2026-05-05 16:28 | 44.47708 | 2.13159 | 36419 ft | 383 kts | 236° |
| 2026-05-05 16:28 | 44.46239 | 2.10045 | 36644 ft | 384 kts | 236° |
| 2026-05-05 16:28 | 44.44767 | 2.06929 | 36857 ft | 384 kts | 236° |
| 2026-05-05 16:28 | 44.43311 | 2.03848 | 36932 ft | 385 kts | 236° |
| 2026-05-05 16:29 | 44.40357 | 1.97614 | 36930 ft | 384 kts | 236° |
| 2026-05-05 16:29 | 44.37407 | 1.91422 | 36939 ft | 381 kts | 236° |
| 2026-05-05 16:30 | 44.34484 | 1.85275 | 36939 ft | 383 kts | 236° |
| 2026-05-05 16:30 | 44.31528 | 1.79071 | 36939 ft | 384 kts | 236° |
| 2026-05-05 16:31 | 44.28567 | 1.72871 | 36938 ft | 384 kts | 236° |
| 2026-05-05 16:31 | 44.25675 | 1.66602 | 36930 ft | 384 kts | 237° |
| 2026-05-05 16:32 | 44.22803 | 1.60269 | 36934 ft | 395 kts | 237° |
| 2026-05-05 16:32 | 44.19811 | 1.53727 | 36940 ft | 405 kts | 237° |
| 2026-05-05 16:33 | 44.16725 | 1.47049 | 36941 ft | 413 kts | 236° |
| 2026-05-05 16:33 | 44.13599 | 1.40305 | 36936 ft | 415 kts | 236° |
| 2026-05-05 16:34 | 44.10489 | 1.33598 | 36943 ft | 415 kts | 236° |
| 2026-05-05 16:34 | 44.07353 | 1.26857 | 36943 ft | 415 kts | 236° |
| 2026-05-05 16:35 | 44.04207 | 1.20127 | 36949 ft | 415 kts | 236° |
| 2026-05-05 16:35 | 44.01064 | 1.13397 | 36960 ft | 415 kts | 237° |
| 2026-05-05 16:36 | 43.97948 | 1.06711 | 36965 ft | 415 kts | 236° |
| 2026-05-05 16:36 | 43.94795 | 0.99995 | 36959 ft | 415 kts | 236° |
| 2026-05-05 16:37 | 43.91631 | 0.93293 | 36963 ft | 415 kts | 236° |
| 2026-05-05 16:37 | 43.88380 | 0.86676 | 36962 ft | 415 kts | 230° |
| 2026-05-05 16:38 | 43.84542 | 0.80694 | 36963 ft | 415 kts | 228° |
| 2026-05-05 16:38 | 43.80725 | 0.74781 | 36979 ft | 415 kts | 229° |
| 2026-05-05 16:39 | 43.76869 | 0.68828 | 36973 ft | 415 kts | 228° |
| 2026-05-05 16:39 | 43.73011 | 0.62894 | 36977 ft | 415 kts | 228° |
| 2026-05-05 16:40 | 43.69179 | 0.57012 | 36978 ft | 415 kts | 228° |
| 2026-05-05 16:40 | 43.65317 | 0.51089 | 36979 ft | 415 kts | 228° |
| 2026-05-05 16:41 | 43.61454 | 0.45179 | 36979 ft | 414 kts | 228° |
| 2026-05-05 16:41 | 43.57592 | 0.39285 | 36987 ft | 414 kts | 228° |
| 2026-05-05 16:42 | 43.53727 | 0.33392 | 36994 ft | 414 kts | 228° |
| 2026-05-05 16:42 | 43.49892 | 0.27555 | 36997 ft | 414 kts | 228° |
| 2026-05-05 16:43 | 43.46018 | 0.21678 | 36995 ft | 414 kts | 228° |
| 2026-05-05 16:43 | 43.42139 | 0.15815 | 36988 ft | 414 kts | 228° |
| 2026-05-05 16:44 | 43.38263 | 0.09966 | 36998 ft | 413 kts | 228° |
| 2026-05-05 16:44 | 43.34425 | 0.04165 | 37004 ft | 413 kts | 228° |
| 2026-05-05 16:45 | 43.30563 | -0.01668 | 37034 ft | 413 kts | 229° |
| 2026-05-05 16:45 | 43.26687 | -0.07498 | 37017 ft | 414 kts | 229° |
| 2026-05-05 16:46 | 43.22800 | -0.13328 | 36993 ft | 414 kts | 229° |
| 2026-05-05 16:46 | 43.18929 | -0.19109 | 36999 ft | 414 kts | 229° |
| 2026-05-05 16:47 | 43.15035 | -0.24919 | 37000 ft | 414 kts | 229° |
| 2026-05-05 16:47 | 43.11139 | -0.30731 | 36996 ft | 414 kts | 229° |
| 2026-05-05 16:48 | 43.07238 | -0.36528 | 36992 ft | 414 kts | 228° |
| 2026-05-05 16:48 | 43.03332 | -0.42314 | 36986 ft | 414 kts | 228° |
| 2026-05-05 16:49 | 42.99456 | -0.48050 | 36953 ft | 413 kts | 229° |
| 2026-05-05 16:49 | 42.95557 | -0.53822 | 36964 ft | 413 kts | 229° |
| 2026-05-05 16:50 | 42.91653 | -0.59577 | 36969 ft | 413 kts | 229° |
| 2026-05-05 16:50 | 42.88195 | -0.65768 | 36963 ft | 410 kts | 243° |
| 2026-05-05 16:51 | 42.86384 | -0.73066 | 36961 ft | 410 kts | 252° |
| 2026-05-05 16:51 | 42.84741 | -0.80507 | 36959 ft | 410 kts | 252° |
| 2026-05-05 16:52 | 42.83093 | -0.87967 | 36948 ft | 411 kts | 252° |
| 2026-05-05 16:52 | 42.81452 | -0.95385 | 36952 ft | 412 kts | 252° |
| 2026-05-05 16:53 | 42.79794 | -1.02848 | 36954 ft | 412 kts | 252° |
| 2026-05-05 16:53 | 42.78135 | -1.10311 | 36957 ft | 412 kts | 252° |
| 2026-05-05 16:54 | 42.76461 | -1.17782 | 36962 ft | 413 kts | 252° |
| 2026-05-05 16:54 | 42.74783 | -1.25252 | 36971 ft | 413 kts | 252° |
| 2026-05-05 16:55 | 42.73112 | -1.32689 | 36976 ft | 414 kts | 252° |
| 2026-05-05 16:55 | 42.71428 | -1.40172 | 36987 ft | 414 kts | 252° |
| 2026-05-05 16:56 | 42.69734 | -1.47656 | 36996 ft | 414 kts | 252° |
| 2026-05-05 16:56 | 42.68036 | -1.55141 | 37008 ft | 414 kts | 253° |
| 2026-05-05 16:57 | 42.66341 | -1.62567 | 37003 ft | 415 kts | 253° |
| 2026-05-05 16:57 | 42.64630 | -1.70055 | 36995 ft | 415 kts | 253° |
| 2026-05-05 16:58 | 42.62905 | -1.77533 | 36997 ft | 415 kts | 252° |
| 2026-05-05 16:58 | 42.61170 | -1.85015 | 36994 ft | 415 kts | 252° |
| 2026-05-05 16:59 | 42.59438 | -1.92489 | 36973 ft | 415 kts | 253° |
| 2026-05-05 16:59 | 42.57718 | -1.99917 | 36992 ft | 415 kts | 253° |
| 2026-05-05 17:00 | 42.55976 | -2.07378 | 36998 ft | 415 kts | 252° |
| 2026-05-05 17:00 | 42.54222 | -2.14826 | 37008 ft | 414 kts | 252° |
| 2026-05-05 17:01 | 42.52466 | -2.22266 | 37013 ft | 414 kts | 252° |
| 2026-05-05 17:01 | 42.50724 | -2.29650 | 37018 ft | 414 kts | 253° |
| 2026-05-05 17:02 | 42.48966 | -2.37086 | 37013 ft | 415 kts | 253° |
| 2026-05-05 17:02 | 42.47203 | -2.44518 | 37010 ft | 415 kts | 253° |
| 2026-05-05 17:03 | 42.45432 | -2.51951 | 37007 ft | 415 kts | 252° |
| 2026-05-05 17:03 | 42.43664 | -2.59336 | 37009 ft | 415 kts | 252° |
| 2026-05-05 17:04 | 42.41886 | -2.66766 | 37014 ft | 415 kts | 252° |
| 2026-05-05 17:04 | 42.40101 | -2.74198 | 37011 ft | 415 kts | 253° |
| 2026-05-05 17:05 | 42.38311 | -2.81616 | 37017 ft | 415 kts | 252° |
| 2026-05-05 17:05 | 42.36514 | -2.89043 | 37001 ft | 415 kts | 253° |
| 2026-05-05 17:06 | 42.34727 | -2.96395 | 37025 ft | 414 kts | 252° |
| 2026-05-05 17:06 | 42.32923 | -3.03781 | 37033 ft | 413 kts | 252° |
| 2026-05-05 17:07 | 42.31121 | -3.11153 | 37032 ft | 413 kts | 253° |
| 2026-05-05 17:07 | 42.29309 | -3.18526 | 37031 ft | 414 kts | 252° |
| 2026-05-05 17:08 | 42.27510 | -3.25840 | 37033 ft | 413 kts | 253° |
| 2026-05-05 17:08 | 42.25692 | -3.33204 | 37035 ft | 414 kts | 253° |
| 2026-05-05 17:09 | 42.23870 | -3.40569 | 37036 ft | 414 kts | 252° |
| 2026-05-05 17:09 | 42.22041 | -3.47928 | 37029 ft | 414 kts | 253° |
| 2026-05-05 17:10 | 42.20224 | -3.55227 | 37027 ft | 414 kts | 253° |
| 2026-05-05 17:10 | 42.18383 | -3.62576 | 37034 ft | 414 kts | 253° |
| 2026-05-05 17:11 | 42.16533 | -3.69927 | 37029 ft | 414 kts | 253° |
| 2026-05-05 17:11 | 42.14692 | -3.77270 | 37030 ft | 414 kts | 253° |
| 2026-05-05 17:12 | 42.12845 | -3.84607 | 37008 ft | 414 kts | 253° |
| 2026-05-05 17:12 | 42.10995 | -3.91886 | 37019 ft | 413 kts | 252° |
| 2026-05-05 17:13 | 42.09135 | -3.99196 | 37024 ft | 413 kts | 253° |
| 2026-05-05 17:13 | 42.07272 | -4.06511 | 37025 ft | 413 kts | 252° |
| 2026-05-05 17:14 | 42.05405 | -4.13811 | 37024 ft | 413 kts | 252° |
| 2026-05-05 17:14 | 42.03538 | -4.21101 | 37021 ft | 412 kts | 252° |
| 2026-05-05 17:15 | 42.01681 | -4.28354 | 37016 ft | 412 kts | 252° |
| 2026-05-05 17:15 | 41.99798 | -4.35647 | 37016 ft | 412 kts | 252° |
| 2026-05-05 17:16 | 41.97910 | -4.42924 | 37016 ft | 412 kts | 252° |
| 2026-05-05 17:16 | 41.96040 | -4.50148 | 37016 ft | 412 kts | 252° |
| 2026-05-05 17:17 | 41.94147 | -4.57422 | 37002 ft | 412 kts | 252° |
| 2026-05-05 17:17 | 41.92255 | -4.64689 | 37002 ft | 412 kts | 252° |
| 2026-05-05 17:18 | 41.90357 | -4.71957 | 37001 ft | 412 kts | 252° |
| 2026-05-05 17:18 | 41.88463 | -4.79172 | 36993 ft | 412 kts | 252° |
| 2026-05-05 17:19 | 41.86545 | -4.86426 | 37010 ft | 411 kts | 252° |
| 2026-05-05 17:19 | 41.84636 | -4.93650 | 37016 ft | 411 kts | 252° |
| 2026-05-05 17:20 | 41.82741 | -5.00817 | 37007 ft | 410 kts | 253° |
| 2026-05-05 17:20 | 41.80824 | -5.08026 | 37010 ft | 410 kts | 252° |
| 2026-05-05 17:21 | 41.78901 | -5.15223 | 37010 ft | 410 kts | 252° |
| 2026-05-05 17:22 | 41.76020 | -5.26017 | 37011 ft | 410 kts | 252° |
| 2026-05-05 17:22 | 41.74107 | -5.33153 | 37011 ft | 410 kts | 252° |
| 2026-05-05 17:23 | 41.72172 | -5.40327 | 37008 ft | 409 kts | 253° |
| 2026-05-05 17:23 | 41.70237 | -5.47488 | 37012 ft | 409 kts | 253° |
| 2026-05-05 17:24 | 41.68302 | -5.54632 | 37007 ft | 409 kts | 253° |
| 2026-05-05 17:24 | 41.66362 | -5.61778 | 37006 ft | 408 kts | 253° |
| 2026-05-05 17:25 | 41.64429 | -5.68881 | 36999 ft | 408 kts | 253° |
| 2026-05-05 17:25 | 41.62501 | -5.76011 | 36975 ft | 407 kts | 253° |
| 2026-05-05 17:26 | 41.60581 | -5.83112 | 37004 ft | 406 kts | 253° |
| 2026-05-05 17:26 | 41.58679 | -5.90135 | 37009 ft | 404 kts | 253° |
| 2026-05-05 17:27 | 41.56757 | -5.97194 | 37012 ft | 404 kts | 253° |
| 2026-05-05 17:27 | 41.54834 | -6.04235 | 37013 ft | 403 kts | 253° |
| 2026-05-05 17:28 | 41.52908 | -6.11264 | 36982 ft | 404 kts | 253° |
| 2026-05-05 17:28 | 41.52007 | -6.14812 | 36731 ft | 402 kts | 258° |
| 2026-05-05 17:28 | 41.51322 | -6.18373 | 36472 ft | 402 kts | 259° |
| 2026-05-05 17:28 | 41.50662 | -6.21994 | 36218 ft | 401 kts | 259° |
| 2026-05-05 17:29 | 41.50026 | -6.25609 | 35974 ft | 400 kts | 260° |
| 2026-05-05 17:29 | 41.49400 | -6.29221 | 35722 ft | 400 kts | 260° |
| 2026-05-05 17:29 | 41.48755 | -6.32827 | 35475 ft | 399 kts | 259° |
| 2026-05-05 17:29 | 41.48087 | -6.36415 | 35233 ft | 399 kts | 259° |
| 2026-05-05 17:30 | 41.47403 | -6.39998 | 34988 ft | 398 kts | 259° |
| 2026-05-05 17:30 | 41.46713 | -6.43569 | 34754 ft | 397 kts | 259° |
| 2026-05-05 17:30 | 41.46027 | -6.47119 | 34492 ft | 394 kts | 259° |
| 2026-05-05 17:30 | 41.45345 | -6.50652 | 34255 ft | 393 kts | 259° |
| 2026-05-05 17:31 | 41.44666 | -6.54179 | 34022 ft | 391 kts | 259° |
| 2026-05-05 17:31 | 41.44001 | -6.57636 | 33758 ft | 389 kts | 259° |
| 2026-05-05 17:31 | 41.43332 | -6.61123 | 33484 ft | 387 kts | 259° |
| 2026-05-05 17:31 | 41.42670 | -6.64582 | 33213 ft | 385 kts | 259° |
| 2026-05-05 17:32 | 41.42011 | -6.68032 | 32945 ft | 383 kts | 259° |
| 2026-05-05 17:32 | 41.41354 | -6.71459 | 32678 ft | 380 kts | 259° |
| 2026-05-05 17:32 | 41.40701 | -6.74860 | 32420 ft | 378 kts | 259° |
| 2026-05-05 17:32 | 41.40050 | -6.78237 | 32156 ft | 376 kts | 259° |
| 2026-05-05 17:33 | 41.39399 | -6.81600 | 31895 ft | 374 kts | 259° |
| 2026-05-05 17:33 | 41.38760 | -6.84897 | 31631 ft | 372 kts | 259° |
| 2026-05-05 17:33 | 41.38112 | -6.88230 | 31377 ft | 371 kts | 259° |
| 2026-05-05 17:33 | 41.37465 | -6.91544 | 31110 ft | 368 kts | 259° |
| 2026-05-05 17:34 | 41.36823 | -6.94817 | 30646 ft | 364 kts | 259° |
| 2026-05-05 17:34 | 41.36185 | -6.98060 | 30147 ft | 361 kts | 259° |
| 2026-05-05 17:34 | 41.35553 | -7.01281 | 29624 ft | 358 kts | 259° |
| 2026-05-05 17:34 | 41.34931 | -7.04457 | 29142 ft | 353 kts | 260° |
| 2026-05-05 17:35 | 41.34313 | -7.07605 | 28657 ft | 348 kts | 259° |
| 2026-05-05 17:35 | 41.33702 | -7.10690 | 28224 ft | 343 kts | 259° |
| 2026-05-05 17:35 | 41.33106 | -7.13702 | 27785 ft | 339 kts | 260° |
| 2026-05-05 17:35 | 41.32514 | -7.16712 | 27367 ft | 334 kts | 260° |
| 2026-05-05 17:36 | 41.31931 | -7.19687 | 26947 ft | 331 kts | 260° |
| 2026-05-05 17:36 | 41.31351 | -7.22627 | 26528 ft | 327 kts | 260° |
| 2026-05-05 17:36 | 41.30774 | -7.25535 | 26137 ft | 323 kts | 260° |
| 2026-05-05 17:36 | 41.30200 | -7.28413 | 25726 ft | 319 kts | 260° |
| 2026-05-05 17:37 | 41.29634 | -7.31255 | 25303 ft | 317 kts | 260° |
| 2026-05-05 17:37 | 41.29232 | -7.33140 | 24780 ft | 324 kts | 259° |
| 2026-05-05 17:37 | 41.28307 | -7.37059 | 23675 ft | 339 kts | 258° |
| 2026-05-05 17:37 | 41.27568 | -7.40003 | 23084 ft | 341 kts | 257° |
| 2026-05-05 17:38 | 41.26807 | -7.42969 | 22644 ft | 336 kts | 257° |
| 2026-05-05 17:38 | 41.26058 | -7.45895 | 22215 ft | 332 kts | 257° |
| 2026-05-05 17:38 | 41.25327 | -7.48790 | 21791 ft | 329 kts | 257° |
| 2026-05-05 17:38 | 41.24613 | -7.51657 | 21373 ft | 325 kts | 257° |
| 2026-05-05 17:39 | 41.23909 | -7.54507 | 20952 ft | 323 kts | 258° |
| 2026-05-05 17:39 | 41.23214 | -7.57323 | 20540 ft | 320 kts | 258° |
| 2026-05-05 17:39 | 41.22525 | -7.60120 | 20146 ft | 317 kts | 258° |
| 2026-05-05 17:39 | 41.21840 | -7.62892 | 19738 ft | 315 kts | 258° |
| 2026-05-05 17:40 | 41.21157 | -7.65650 | 19340 ft | 314 kts | 258° |
| 2026-05-05 17:40 | 41.20485 | -7.68366 | 18953 ft | 312 kts | 258° |
| 2026-05-05 17:40 | 41.19808 | -7.71102 | 18560 ft | 311 kts | 258° |
| 2026-05-05 17:40 | 41.19133 | -7.73829 | 18140 ft | 311 kts | 258° |
| 2026-05-05 17:41 | 41.18458 | -7.76554 | 17726 ft | 309 kts | 258° |
| 2026-05-05 17:41 | 41.17787 | -7.79249 | 17344 ft | 307 kts | 257° |
| 2026-05-05 17:41 | 41.17119 | -7.81926 | 16959 ft | 304 kts | 257° |
| 2026-05-05 17:41 | 41.16457 | -7.84572 | 16597 ft | 302 kts | 257° |
| 2026-05-05 17:42 | 41.15796 | -7.87213 | 16213 ft | 300 kts | 256° |
| 2026-05-05 17:42 | 41.15148 | -7.89799 | 15861 ft | 298 kts | 256° |
| 2026-05-05 17:42 | 41.14492 | -7.92416 | 15489 ft | 299 kts | 256° |
| 2026-05-05 17:42 | 41.13837 | -7.95022 | 15122 ft | 298 kts | 256° |
| 2026-05-05 17:43 | 41.13187 | -7.97619 | 14755 ft | 297 kts | 255° |
| 2026-05-05 17:43 | 41.12537 | -8.00222 | 14389 ft | 297 kts | 256° |
| 2026-05-05 17:43 | 41.11886 | -8.02813 | 14022 ft | 296 kts | 255° |
| 2026-05-05 17:43 | 41.11232 | -8.05401 | 13636 ft | 296 kts | 255° |
| 2026-05-05 17:44 | 41.10577 | -8.07982 | 13247 ft | 295 kts | 255° |
| 2026-05-05 17:44 | 41.09926 | -8.10554 | 12875 ft | 293 kts | 256° |
| 2026-05-05 17:44 | 41.09288 | -8.13078 | 12508 ft | 291 kts | 255° |
| 2026-05-05 17:44 | 41.08647 | -8.15615 | 12139 ft | 289 kts | 254° |
| 2026-05-05 17:45 | 41.08008 | -8.18139 | 11759 ft | 289 kts | 255° |
| 2026-05-05 17:45 | 41.07369 | -8.20663 | 11391 ft | 288 kts | 254° |
| 2026-05-05 17:45 | 41.06731 | -8.23178 | 11010 ft | 288 kts | 256° |
| 2026-05-05 17:45 | 41.06090 | -8.25698 | 10627 ft | 287 kts | 255° |
| 2026-05-05 17:46 | 41.05453 | -8.28199 | 10245 ft | 287 kts | 256° |
| 2026-05-05 17:46 | 41.04820 | -8.30682 | 10069 ft | 282 kts | 255° |
| 2026-05-05 17:46 | 41.04195 | -8.33135 | 9860 ft | 281 kts | 255° |
| 2026-05-05 17:46 | 41.03569 | -8.35597 | 9409 ft | 282 kts | 256° |
| 2026-05-05 17:47 | 41.02942 | -8.38055 | 9007 ft | 280 kts | 256° |
| 2026-05-05 17:47 | 41.02329 | -8.40455 | 8625 ft | 278 kts | 255° |
| 2026-05-05 17:47 | 41.01708 | -8.42879 | 8186 ft | 279 kts | 255° |
| 2026-05-05 17:47 | 41.01087 | -8.45305 | 7785 ft | 278 kts | 255° |
| 2026-05-05 17:48 | 41.00466 | -8.47722 | 7407 ft | 276 kts | 256° |
| 2026-05-05 17:48 | 41.00044 | -8.50178 | 7003 ft | 273 kts | 263° |
| 2026-05-05 17:48 | 40.99682 | -8.52645 | 6596 ft | 273 kts | 263° |
| 2026-05-05 17:48 | 40.99315 | -8.55093 | 6172 ft | 268 kts | 262° |
| 2026-05-05 17:49 | 40.98958 | -8.57451 | 5783 ft | 254 kts | 263° |
| 2026-05-05 17:49 | 40.98952 | -8.59665 | 5419 ft | 231 kts | 293° |
| 2026-05-05 17:49 | 40.99837 | -8.61291 | 5092 ft | 221 kts | 327° |
| 2026-05-05 17:49 | 41.01259 | -8.61956 | 4763 ft | 217 kts | 348° |
| 2026-05-05 17:50 | 41.02735 | -8.62334 | 4420 ft | 215 kts | 348° |
| 2026-05-05 17:50 | 41.04198 | -8.62718 | 4084 ft | 213 kts | 347° |
| 2026-05-05 17:50 | 41.05648 | -8.63105 | 3790 ft | 213 kts | 347° |
| 2026-05-05 17:50 | 41.07091 | -8.63491 | 3475 ft | 211 kts | 348° |
| 2026-05-05 17:51 | 41.08529 | -8.63866 | 3172 ft | 210 kts | 347° |
| 2026-05-05 17:51 | 41.09956 | -8.64235 | 2879 ft | 206 kts | 347° |
| 2026-05-05 17:51 | 41.11310 | -8.64585 | 2617 ft | 192 kts | 347° |
| 2026-05-05 17:51 | 41.12570 | -8.64910 | 2399 ft | 181 kts | 347° |
| 2026-05-05 17:52 | 41.13756 | -8.65219 | 2153 ft | 167 kts | 347° |
| 2026-05-05 17:52 | 41.14848 | -8.65501 | 1929 ft | 152 kts | 346° |
| 2026-05-05 17:52 | 41.15824 | -8.65754 | 1753 ft | 136 kts | 345° |
| 2026-05-05 17:52 | 41.16744 | -8.65998 | 1534 ft | 132 kts | 347° |
| 2026-05-05 17:53 | 41.17636 | -8.66236 | 1404 ft | 131 kts | 348° |
| 2026-05-05 17:53 | 41.18525 | -8.66468 | 1209 ft | 128 kts | 348° |
| 2026-05-05 17:53 | 41.19391 | -8.66692 | 1034 ft | 129 kts | 346° |
| 2026-05-05 17:53 | 41.20274 | -8.66925 | 893 ft | 128 kts | 345° |
| 2026-05-05 17:54 | 41.21156 | -8.67160 | 692 ft | 130 kts | 348° |
| 2026-05-05 17:54 | 41.22044 | -8.67398 | 518 ft | 130 kts | 345° |
| 2026-05-05 17:54 | 41.22917 | -8.67633 | 350 ft | 128 kts | 346° |
| 2026-05-05 17:54 | 41.23765 | -8.67853 | 226 ft | 115 kts | 346° |
| 2026-05-05 17:55 | 41.24436 | -8.68036 | 213 ft | 85 kts | 349° |
| 2026-05-05 17:55 | 41.24884 | -8.68149 | 199 ft | 36 kts | 351° |
| 2026-05-05 17:55 | 41.25103 | -8.68174 | 186 ft | 27 kts | 21° |
| 2026-05-05 17:55 | 41.25214 | -8.68130 | 184 ft | 14 kts | 15° |
| 2026-05-05 17:56 | 41.25266 | -8.68109 | 182 ft | 5 kts | 19° |
| 2026-05-05 17:56 | 41.25292 | -8.68081 | 182 ft | 3 kts | 62° |
| 2026-05-05 17:56 | 41.25294 | -8.68074 | 181 ft | 0 kts | 66° |
| 2026-05-05 17:56 | 41.25294 | -8.68070 | 181 ft | 2 kts | 89° |
| 2026-05-05 17:57 | 41.25281 | -8.68027 | 183 ft | 7 kts | 130° |
| 2026-05-05 17:57 | 41.25229 | -8.68002 | 188 ft | 7 kts | 169° |
| 2026-05-05 17:57 | 41.25198 | -8.67995 | 198 ft | 3 kts | 169° |
| 2026-05-05 17:57 | 41.25190 | -8.67993 | 199 ft | 0 kts | 169° |
| 2026-05-05 17:58 | 41.25165 | -8.67987 | 195 ft | 9 kts | 169° |
| 2026-05-05 17:58 | 41.25089 | -8.67969 | 193 ft | 10 kts | 170° |
| 2026-05-05 17:58 | 41.25037 | -8.67957 | 197 ft | 6 kts | 170° |
| 2026-05-05 17:58 | 41.24970 | -8.67939 | 195 ft | 15 kts | 168° |
| 2026-05-05 17:59 | 41.24879 | -8.67911 | 204 ft | 12 kts | 162° |
| 2026-05-05 17:59 | 41.24796 | -8.67856 | 212 ft | 15 kts | 153° |
| 2026-05-05 17:59 | 41.24685 | -8.67810 | 218 ft | 19 kts | 168° |
| 2026-05-05 17:59 | 41.24554 | -8.67774 | 219 ft | 18 kts | 168° |
| 2026-05-05 18:00 | 41.24451 | -8.67745 | 222 ft | 13 kts | 168° |
| 2026-05-05 18:00 | 41.24397 | -8.67731 | 225 ft | 13 kts | 168° |
| 2026-05-05 18:00 | 41.24275 | -8.67661 | 232 ft | 12 kts | 131° |
| 2026-05-05 18:00 | 41.24237 | -8.67592 | 236 ft | 7 kts | 125° |
| 2026-05-05 18:01 | 41.24213 | -8.67549 | 238 ft | 7 kts | 129° |
| 2026-05-05 18:01 | 41.24172 | -8.67495 | 241 ft | 10 kts | 140° |
| 2026-05-05 18:01 | 41.24105 | -8.67445 | 242 ft | 12 kts | 158° |
| 2026-05-05 18:01 | 41.24024 | -8.67420 | 242 ft | 11 kts | 174° |
| 2026-05-05 18:02 | 41.23974 | -8.67413 | 242 ft | 6 kts | 150° |
| 2026-05-05 18:02 | 41.23955 | -8.67385 | 242 ft | 6 kts | 124° |
| 2026-05-05 18:02 | 41.23935 | -8.67344 | 242 ft | 5 kts | 124° |
| 2026-05-05 18:02 | 41.23923 | -8.67321 | 242 ft | 0 kts | 124° |